Time;durP1;ratioP1;P1;durP2;ratioP2;P2;SDS_P1;SDS_P2;PMS_P1;PMS_P2;Temp;Humidity;BMP_temperature;BMP_pressure;BME280_temperature;BME280_humidity;BME280_pressure;Samples;Min_cycle;Max_cycle;Signal;HPM_P1;HPM_P2
2022/12/09 00:01:16;;;;;;;2.07;1.97;;;19.10;38.40;;;;;;4970035;28;20286;-62
2022/12/09 00:03:41;;;;;;;2.00;1.90;;;19.10;38.40;;;;;;4979367;28;20224;-62
2022/12/09 00:06:28;;;;;;;2.50;2.30;;;19.10;38.40;;;;;;4980019;28;20474;-62
2022/12/09 00:08:55;;;;;;;2.20;2.00;;;19.10;38.40;;;;;;4995017;28;20311;-63
2022/12/09 00:11:21;;;;;;;2.10;2.00;;;19.10;38.40;;;;;;4988804;28;20440;-62
2022/12/09 00:13:49;;;;;;;2.53;2.30;;;19.10;38.40;;;;;;4997349;28;20466;-62
2022/12/09 00:16:14;;;;;;;2.20;2.10;;;19.10;38.40;;;;;;4999377;28;20533;-62
2022/12/09 00:18:41;;;;;;;2.20;2.10;;;19.10;38.40;;;;;;4995384;28;20534;-62
2022/12/09 00:21:27;;;;;;;2.17;2.07;;;19.10;38.40;;;;;;4995226;28;20227;-62
2022/12/09 00:23:55;;;;;;;2.00;1.90;;;19.10;38.40;;;;;;4979456;28;20915;-62
2022/12/09 00:26:22;;;;;;;2.47;2.37;;;19.00;38.30;;;;;;4996839;28;20480;-62
2022/12/09 00:28:49;;;;;;;2.00;1.90;;;19.10;38.40;;;;;;4996698;28;20436;-62
2022/12/09 00:31:18;;;;;;;2.33;2.20;;;19.10;38.40;;;;;;4993998;28;20469;-62
2022/12/09 00:33:43;;;;;;;1.90;1.80;;;19.10;38.40;;;;;;4995133;28;20480;-63
2022/12/09 00:36:14;;;;;;;2.20;2.00;;;19.00;38.30;;;;;;4992721;28;20572;-62
2022/12/09 00:38:41;;;;;;;2.23;2.13;;;19.10;38.40;;;;;;4986073;28;20225;-62
2022/12/09 00:41:07;;;;;;;2.20;2.07;;;19.00;38.30;;;;;;4977727;28;20435;-62
2022/12/09 00:43:33;;;;;;;2.10;1.90;;;19.10;38.40;;;;;;4989797;28;20479;-62
2022/12/09 00:45:59;;;;;;;2.00;1.90;;;19.10;38.40;;;;;;4973149;28;20617;-62
2022/12/09 00:48:25;;;;;;;2.20;2.10;;;19.00;38.30;;;;;;4989398;28;20310;-62
2022/12/09 00:50:51;;;;;;;2.60;2.40;;;19.10;38.40;;;;;;4991901;28;21596;-62
2022/12/09 00:53:17;;;;;;;2.30;2.20;;;19.00;38.30;;;;;;4995406;28;20502;-62
2022/12/09 00:55:43;;;;;;;2.80;2.60;;;19.00;38.30;;;;;;4998052;28;20261;-62
2022/12/09 00:58:09;;;;;;;2.30;2.20;;;19.00;38.30;;;;;;5000957;28;20313;-62
2022/12/09 01:00:35;;;;;;;2.00;1.90;;;19.00;38.30;;;;;;4998949;28;20963;-61
2022/12/09 01:03:00;;;;;;;2.10;2.00;;;19.00;38.30;;;;;;5000740;28;20219;-61
2022/12/09 01:05:26;;;;;;;2.17;2.07;;;19.00;38.30;;;;;;4983728;28;20252;-62
2022/12/09 01:07:51;;;;;;;2.20;2.10;;;19.00;38.30;;;;;;4987961;28;20378;-62
2022/12/09 01:10:17;;;;;;;2.10;2.00;;;19.00;38.30;;;;;;4999328;28;20227;-62
2022/12/09 01:12:42;;;;;;;2.10;2.00;;;19.00;38.30;;;;;;4997663;28;20684;-62
2022/12/09 01:15:09;;;;;;;2.40;2.30;;;19.00;38.30;;;;;;5002767;28;20235;-62
2022/12/09 01:17:39;;;;;;;2.27;2.17;;;19.00;38.30;;;;;;4999863;28;20679;-62
2022/12/09 01:20:06;;;;;;;2.53;2.37;;;19.00;38.30;;;;;;5000119;28;20427;-61
2022/12/09 01:22:31;;;;;;;2.13;2.03;;;19.00;38.30;;;;;;5002873;28;20526;-62
2022/12/09 01:24:57;;;;;;;2.20;2.00;;;19.00;38.30;;;;;;5006315;28;20488;-62
2022/12/09 01:27:23;;;;;;;2.40;2.20;;;19.00;38.30;;;;;;5002914;28;20250;-61
2022/12/09 01:29:48;;;;;;;2.20;2.00;;;19.00;38.30;;;;;;5000632;28;20667;-62
2022/12/09 01:32:14;;;;;;;2.07;1.87;;;19.00;38.30;;;;;;4997697;28;20224;-62
2022/12/09 01:34:40;;;;;;;2.37;2.27;;;19.00;38.30;;;;;;4998157;28;20215;-62
2022/12/09 01:37:05;;;;;;;2.43;2.33;;;19.00;38.30;;;;;;5003235;28;20323;-62
2022/12/09 01:39:31;;;;;;;3.10;2.50;;;19.00;38.30;;;;;;4999358;28;20234;-62
2022/12/09 01:41:56;;;;;;;2.57;2.10;;;19.00;38.30;;;;;;4996713;28;20236;-63
2022/12/09 01:44:26;;;;;;;2.00;1.90;;;19.00;38.30;;;;;;5000752;28;20277;-62
2022/12/09 01:46:57;;;;;;;2.20;2.10;;;19.00;38.30;;;;;;4996867;28;20239;-62
2022/12/09 01:49:40;;;;;;;2.30;2.20;;;19.00;38.30;;;;;;4985616;28;20472;-62
2022/12/09 01:52:20;;;;;;;2.60;2.40;;;19.00;38.30;;;;;;4993650;28;20424;-62
2022/12/09 01:54:47;;;;;;;2.20;2.03;;;19.00;38.30;;;;;;4987985;28;20439;-62
2022/12/09 01:57:13;;;;;;;2.17;2.00;;;19.00;38.30;;;;;;4978435;28;20426;-62
2022/12/09 01:59:40;;;;;;;2.20;2.00;;;19.00;38.30;;;;;;4981147;28;20539;-62
2022/12/09 02:02:10;;;;;;;1.93;1.83;;;19.00;38.30;;;;;;4976627;28;20469;-62
2022/12/09 02:04:39;;;;;;;2.40;1.90;;;19.00;38.30;;;;;;4977723;28;20458;-62
2022/12/09 02:07:09;;;;;;;2.00;1.90;;;19.00;38.30;;;;;;4981143;28;21006;-61
2022/12/09 02:09:35;;;;;;;1.90;1.80;;;19.00;38.30;;;;;;4984374;28;20471;-62
2022/12/09 02:12:17;;;;;;;2.10;2.00;;;19.00;38.30;;;;;;4992344;28;20477;-62
2022/12/09 02:15:31;;;;;;;2.27;2.13;;;19.00;38.30;;;;;;4999511;28;20995;-62
2022/12/09 02:18:00;;;;;;;1.93;1.83;;;19.00;38.30;;;;;;4976076;28;20436;-64
2022/12/09 02:20:31;;;;;;;2.10;2.00;;;19.00;38.30;;;;;;4982756;28;20464;-61
2022/12/09 02:23:01;;;;;;;1.80;1.70;;;19.00;38.30;;;;;;4998870;28;20444;-62
2022/12/09 02:25:30;;;;;;;2.00;1.90;;;19.00;38.30;;;;;;4993229;28;20424;-62
2022/12/09 02:28:25;;;;;;;2.23;2.13;;;19.00;38.30;;;;;;5001241;28;20962;-62
2022/12/09 02:31:06;;;;;;;2.20;2.10;;;19.00;38.30;;;;;;4995200;28;20538;-62
2022/12/09 02:33:35;;;;;;;2.00;1.90;;;19.00;38.30;;;;;;4996142;28;20473;-61
2022/12/09 02:36:04;;;;;;;2.33;2.13;;;19.00;38.30;;;;;;4993656;28;20431;-62
2022/12/09 02:38:32;;;;;;;2.30;2.13;;;19.00;38.30;;;;;;4998033;28;20781;-61
2022/12/09 02:41:02;;;;;;;2.30;2.20;;;19.00;38.30;;;;;;4998844;28;20417;-63
2022/12/09 02:43:33;;;;;;;2.40;2.30;;;19.00;38.30;;;;;;5001034;28;20942;-62
2022/12/09 02:46:00;;;;;;;2.00;1.90;;;19.00;38.30;;;;;;5000006;28;20439;-61
2022/12/09 02:48:40;;;;;;;2.13;2.03;;;19.00;38.30;;;;;;5005406;28;21143;-62
2022/12/09 02:51:09;;;;;;;2.00;1.90;;;19.00;38.30;;;;;;4999198;28;20439;-61
2022/12/09 02:53:37;;;;;;;2.50;2.30;;;19.00;38.30;;;;;;4986473;28;20491;-61
2022/12/09 02:56:05;;;;;;;2.90;2.17;;;19.00;38.30;;;;;;4981787;28;20415;-61
2022/12/09 02:58:31;;;;;;;2.07;1.97;;;19.00;38.30;;;;;;4988872;28;20947;-61
2022/12/09 03:00:57;;;;;;;2.30;2.10;;;19.00;38.30;;;;;;4982565;28;20458;-63
2022/12/09 03:03:23;;;;;;;1.97;1.87;;;19.00;38.30;;;;;;4998515;28;20223;-62
2022/12/09 03:05:58;;;;;;;2.07;1.97;;;19.00;38.30;;;;;;5004063;28;20498;-61
2022/12/09 03:08:49;;;;;;;2.00;1.90;;;19.00;38.30;;;;;;5002230;28;20452;-61
2022/12/09 03:11:17;;;;;;;2.03;1.93;;;19.00;38.30;;;;;;4988358;28;20991;-61
2022/12/09 03:13:55;;;;;;;1.90;1.80;;;19.00;38.30;;;;;;4983101;28;20440;-61
2022/12/09 03:16:55;;;;;;;1.97;1.83;;;19.00;38.30;;;;;;4980931;28;20879;-62
2022/12/09 03:19:42;;;;;;;2.27;2.07;;;19.00;38.30;;;;;;4978398;28;20428;-62
2022/12/09 03:22:14;;;;;;;2.27;2.17;;;19.00;38.30;;;;;;4988252;28;21090;-61
2022/12/09 03:24:49;;;;;;;2.40;2.30;;;19.00;38.30;;;;;;4992166;28;21018;-62
2022/12/09 03:27:22;;;;;;;2.30;2.20;;;19.00;38.30;;;;;;5000031;28;20461;-62
2022/12/09 03:29:49;;;;;;;1.93;1.83;;;19.00;38.30;;;;;;4983913;28;20423;-62
2022/12/09 03:32:18;;;;;;;2.17;2.07;;;19.00;38.30;;;;;;4995047;28;20446;-62
2022/12/09 03:34:46;;;;;;;2.40;2.30;;;19.00;38.30;;;;;;5001540;28;20497;-62
2022/12/09 03:37:15;;;;;;;2.20;2.10;;;19.00;38.30;;;;;;4997578;28;20949;-62
2022/12/09 03:39:42;;;;;;;2.23;2.13;;;19.00;38.30;;;;;;5004881;28;20435;-61
2022/12/09 03:42:25;;;;;;;2.20;2.10;;;19.00;38.30;;;;;;5002626;28;20430;-61
2022/12/09 03:44:57;;;;;;;2.13;2.00;;;19.00;38.30;;;;;;4999850;28;20438;-61
2022/12/09 03:47:22;;;;;;;1.90;1.80;;;19.00;38.30;;;;;;5006648;28;20414;-61
2022/12/09 03:49:48;;;;;;;1.90;1.80;;;19.00;38.30;;;;;;5005207;28;21279;-62
2022/12/09 03:52:43;;;;;;;2.10;1.90;;;19.00;38.30;;;;;;5001678;28;20231;-61
2022/12/09 03:55:32;;;;;;;2.20;2.03;;;19.00;38.30;;;;;;4985975;28;21061;-62
2022/12/09 03:57:59;;;;;;;2.50;2.40;;;19.00;38.30;;;;;;4979580;28;20493;-61
2022/12/09 04:00:25;;;;;;;2.10;2.00;;;19.00;38.30;;;;;;4985793;28;20484;-61
2022/12/09 04:02:51;;;;;;;1.83;1.70;;;19.00;38.30;;;;;;4987312;28;20537;-61
2022/12/09 04:05:16;;;;;;;3.40;1.97;;;19.00;38.30;;;;;;4997351;28;20900;-61
2022/12/09 04:07:42;;;;;;;2.13;2.03;;;19.00;38.30;;;;;;5003085;28;20249;-62
2022/12/09 04:10:09;;;;;;;2.40;2.30;;;19.00;38.30;;;;;;5001424;28;20210;-62
2022/12/09 04:12:34;;;;;;;2.27;2.17;;;19.00;38.30;;;;;;5003295;28;20223;-61
2022/12/09 04:15:00;;;;;;;1.83;1.73;;;19.00;38.30;;;;;;5002672;28;20436;-61
2022/12/09 04:17:25;;;;;;;1.87;1.77;;;19.00;38.30;;;;;;4999498;28;20218;-62
2022/12/09 04:19:51;;;;;;;1.80;1.70;;;19.00;38.30;;;;;;5002317;28;20231;-62
2022/12/09 04:22:16;;;;;;;2.20;2.10;;;19.00;38.30;;;;;;4998583;28;20271;-62
2022/12/09 04:24:42;;;;;;;1.93;1.83;;;19.00;38.30;;;;;;5005859;28;20235;-61
2022/12/09 04:27:10;;;;;;;1.90;1.80;;;19.00;38.30;;;;;;5000364;28;20310;-62
2022/12/09 04:29:35;;;;;;;2.23;2.00;;;19.00;38.30;;;;;;5003636;28;20310;-61
2022/12/09 04:32:01;;;;;;;2.00;1.90;;;19.00;38.30;;;;;;4992524;28;21030;-62
2022/12/09 04:34:26;;;;;;;2.70;2.50;;;19.00;38.30;;;;;;4995632;28;20231;-63
2022/12/09 04:36:52;;;;;;;2.17;2.07;;;19.00;38.30;;;;;;5004961;28;20215;-62
2022/12/09 04:39:18;;;;;;;2.10;2.00;;;19.00;38.40;;;;;;5003718;28;20246;-62
2022/12/09 04:41:44;;;;;;;1.87;1.77;;;19.00;38.30;;;;;;5002820;28;20224;-62
2022/12/09 04:44:09;;;;;;;1.90;1.80;;;19.00;38.30;;;;;;5002922;28;20444;-62
2022/12/09 04:46:35;;;;;;;1.90;1.80;;;19.00;38.30;;;;;;5004752;28;20230;-61
2022/12/09 04:49:00;;;;;;;1.90;1.80;;;19.00;38.30;;;;;;5002016;28;20238;-62
2022/12/09 04:51:26;;;;;;;1.83;1.73;;;19.00;38.30;;;;;;5001968;28;22195;-62
2022/12/09 04:53:51;;;;;;;2.10;2.00;;;19.00;38.30;;;;;;5002216;28;20224;-62
2022/12/09 04:56:20;;;;;;;2.00;1.90;;;19.00;39.10;;;;;;4984855;28;20677;-61
2022/12/09 04:58:47;;;;;;;1.93;1.83;;;19.00;38.30;;;;;;4983148;28;20892;-62
2022/12/09 05:01:15;;;;;;;2.20;1.70;;;19.00;38.30;;;;;;4978257;28;20448;-63
2022/12/09 05:03:40;;;;;;;1.80;1.70;;;19.00;38.30;;;;;;4984031;28;20432;-62
2022/12/09 05:06:11;;;;;;;2.00;1.90;;;19.00;38.30;;;;;;4979420;28;20425;-62
2022/12/09 05:08:37;;;;;;;1.77;1.67;;;19.00;38.30;;;;;;4984118;28;20311;-62
2022/12/09 05:11:03;;;;;;;2.27;1.70;;;19.10;38.30;;;;;;4983683;28;20992;-61
2022/12/09 05:13:29;;;;;;;1.80;1.70;;;19.10;38.30;;;;;;4982685;28;20227;-62
2022/12/09 05:16:00;;;;;;;1.60;1.50;;;19.10;38.30;;;;;;4990009;28;20227;-62
2022/12/09 05:18:25;;;;;;;2.00;1.90;;;19.00;38.20;;;;;;4978474;28;20427;-62
2022/12/09 05:20:51;;;;;;;1.70;1.60;;;19.10;38.30;;;;;;4986310;28;20800;-61
2022/12/09 05:23:17;;;;;;;1.90;1.80;;;19.10;38.20;;;;;;4979944;28;20232;-62
2022/12/09 05:25:42;;;;;;;1.60;1.50;;;19.10;38.10;;;;;;5001228;28;20220;-62
2022/12/09 05:28:08;;;;;;;2.00;1.90;;;19.10;38.10;;;;;;4999300;28;20421;-63
2022/12/09 05:30:34;;;;;;;1.87;1.77;;;19.20;38.10;;;;;;4997135;28;20663;-61
2022/12/09 05:33:00;;;;;;;2.00;1.90;;;19.20;38.00;;;;;;4996545;28;20234;-62
2022/12/09 05:35:25;;;;;;;2.20;2.10;;;19.20;37.90;;;;;;4996860;28;20420;-63
2022/12/09 05:37:51;;;;;;;1.80;1.70;;;19.20;37.90;;;;;;4995520;28;20218;-63
2022/12/09 05:40:16;;;;;;;2.30;2.10;;;19.20;37.80;;;;;;4988216;28;20293;-62
2022/12/09 05:42:42;;;;;;;1.83;1.73;;;19.20;37.90;;;;;;4990862;28;20219;-60
2022/12/09 05:45:08;;;;;;;1.73;1.63;;;19.20;37.90;;;;;;4986719;28;20235;-61
2022/12/09 05:47:33;;;;;;;2.10;2.00;;;19.20;37.80;;;;;;4996668;28;20234;-62
2022/12/09 05:49:59;;;;;;;2.07;1.87;;;19.20;37.80;;;;;;4996946;28;20701;-61
2022/12/09 05:52:24;;;;;;;1.77;1.67;;;19.20;37.80;;;;;;4997067;28;20231;-61
2022/12/09 05:54:50;;;;;;;2.13;2.03;;;19.20;37.80;;;;;;4994583;28;20613;-62
2022/12/09 05:57:15;;;;;;;2.17;2.07;;;19.20;37.90;;;;;;4989055;28;20642;-63
2022/12/09 05:59:41;;;;;;;1.83;1.73;;;19.20;38.60;;;;;;4987682;28;20247;-62
2022/12/09 06:02:06;;;;;;;1.77;1.67;;;19.20;37.90;;;;;;4993409;28;20219;-62
2022/12/09 06:04:32;;;;;;;1.93;1.83;;;19.20;37.90;;;;;;4993365;28;20219;-62
2022/12/09 06:06:57;;;;;;;1.80;1.70;;;19.20;37.90;;;;;;4992112;28;20259;-63
2022/12/09 06:09:23;;;;;;;1.97;1.87;;;19.20;37.90;;;;;;4985274;28;20251;-62
2022/12/09 06:11:48;;;;;;;2.23;1.83;;;19.20;37.90;;;;;;4992491;28;20227;-62
2022/12/09 06:14:14;;;;;;;2.10;2.00;;;19.20;37.90;;;;;;4995461;28;20274;-63
2022/12/09 06:16:40;;;;;;;1.67;1.57;;;19.20;38.00;;;;;;4977338;28;20609;-63
2022/12/09 06:19:08;;;;;;;2.07;1.97;;;19.20;38.00;;;;;;4975265;28;20235;-61
2022/12/09 06:21:34;;;;;;;1.80;1.70;;;19.20;38.00;;;;;;4973874;28;20500;-66
2022/12/09 06:23:59;;;;;;;1.80;1.70;;;19.20;38.00;;;;;;4989911;28;20449;-64
2022/12/09 06:26:28;;;;;;;1.83;1.73;;;19.20;38.00;;;;;;4976238;28;20286;-64
2022/12/09 06:28:54;;;;;;;1.70;1.60;;;19.20;38.00;;;;;;4986891;28;20226;-64
2022/12/09 06:31:21;;;;;;;2.00;1.90;;;19.20;38.00;;;;;;4996476;28;20610;-64
2022/12/09 06:33:46;;;;;;;1.70;1.60;;;19.20;37.90;;;;;;4991229;28;20464;-64
2022/12/09 06:36:12;;;;;;;1.60;1.50;;;19.20;38.80;;;;;;4992021;28;20439;-64
2022/12/09 06:38:38;;;;;;;2.17;1.83;;;19.20;38.10;;;;;;4994274;28;20223;-64
2022/12/09 06:41:08;;;;;;;1.60;1.50;;;19.20;38.00;;;;;;4988687;28;20321;-63
2022/12/09 06:43:34;;;;;;;2.03;1.83;;;19.20;38.00;;;;;;4958064;28;20470;-62
2022/12/09 06:46:00;;;;;;;2.23;2.03;;;19.20;38.00;;;;;;4968399;28;20420;-62
2022/12/09 06:48:26;;;;;;;2.00;1.90;;;19.20;38.00;;;;;;4972831;28;21033;-62
2022/12/09 06:50:51;;;;;;;1.60;1.50;;;19.20;38.20;;;;;;4950805;28;20450;-62
2022/12/09 06:53:17;;;;;;;1.60;1.50;;;19.20;38.10;;;;;;4944887;28;20278;-62
2022/12/09 06:55:43;;;;;;;1.90;1.80;;;19.20;38.10;;;;;;4947479;28;20653;-62
2022/12/09 06:58:09;;;;;;;2.03;1.83;;;19.20;38.10;;;;;;4975560;28;20322;-61
2022/12/09 07:00:35;;;;;;;1.87;1.77;;;19.20;38.10;;;;;;4979704;28;21133;-61
2022/12/09 07:03:01;;;;;;;1.80;1.70;;;19.20;38.20;;;;;;4973114;28;20224;-61
2022/12/09 07:05:27;;;;;;;1.90;1.70;;;19.20;38.20;;;;;;4979834;28;20427;-61
2022/12/09 07:07:52;;;;;;;2.80;1.87;;;19.20;38.20;;;;;;4976059;28;20216;-62
2022/12/09 07:10:18;;;;;;;1.60;1.50;;;19.20;38.20;;;;;;4939056;28;1038529;-62
2022/12/09 07:12:44;;;;;;;2.20;2.00;;;19.20;38.10;;;;;;4987172;28;20510;-62
2022/12/09 07:15:10;;;;;;;2.00;1.90;;;19.20;38.10;;;;;;4971395;28;20437;-63
2022/12/09 07:17:36;;;;;;;2.80;1.87;;;19.20;38.10;;;;;;4969147;28;20716;-62
2022/12/09 07:20:01;;;;;;;3.90;1.70;;;19.20;38.10;;;;;;4978695;28;20923;-62
2022/12/09 07:22:27;;;;;;;1.60;1.50;;;19.20;38.10;;;;;;4977421;28;20223;-63
2022/12/09 07:24:52;;;;;;;2.10;1.90;;;19.20;38.10;;;;;;4974743;28;20255;-63
2022/12/09 07:27:18;;;;;;;1.97;1.87;;;19.20;38.10;;;;;;4973590;28;20302;-62
2022/12/09 07:29:43;;;;;;;1.83;1.73;;;19.10;38.10;;;;;;4977640;28;20229;-62
2022/12/09 07:32:10;;;;;;;2.27;2.17;;;19.10;38.10;;;;;;4970233;28;20620;-62
2022/12/09 07:34:36;;;;;;;2.90;2.20;;;19.20;38.10;;;;;;4968196;28;20221;-62
2022/12/09 07:37:02;;;;;;;1.90;1.80;;;19.20;38.10;;;;;;4974976;28;20940;-62
2022/12/09 07:39:28;;;;;;;2.20;1.83;;;19.20;38.10;;;;;;4972312;28;20439;-63
2022/12/09 07:41:55;;;;;;;1.83;1.73;;;19.20;38.10;;;;;;4973245;28;20271;-62
2022/12/09 07:44:22;;;;;;;1.97;1.87;;;19.20;38.10;;;;;;4981337;28;20234;-62
2022/12/09 07:46:47;;;;;;;1.70;1.60;;;19.20;38.10;;;;;;4974366;28;20695;-62
2022/12/09 07:49:13;;;;;;;1.83;1.60;;;19.20;38.10;;;;;;4977393;28;21021;-63
2022/12/09 07:51:39;;;;;;;1.90;1.80;;;19.20;38.00;;;;;;4970617;28;20239;-63
2022/12/09 07:54:05;;;;;;;2.10;2.00;;;19.20;38.10;;;;;;4975057;28;20213;-62
2022/12/09 07:56:30;;;;;;;2.07;1.97;;;19.20;38.10;;;;;;4986773;28;20449;-62
2022/12/09 07:58:56;;;;;;;1.90;1.80;;;19.20;38.10;;;;;;4992196;28;20223;-63
2022/12/09 08:01:26;;;;;;;1.70;1.60;;;19.10;38.10;;;;;;4989499;28;20218;-62
2022/12/09 08:03:52;;;;;;;1.93;1.83;;;19.10;38.00;;;;;;4986331;28;20216;-62
2022/12/09 08:06:20;;;;;;;2.10;2.00;;;19.10;38.10;;;;;;4988503;28;20934;-62
2022/12/09 08:08:46;;;;;;;2.00;1.90;;;19.20;38.10;;;;;;4989783;28;20366;-62
2022/12/09 08:11:13;;;;;;;2.80;1.80;;;19.20;38.00;;;;;;5000966;28;20515;-63
2022/12/09 08:13:40;;;;;;;1.87;1.73;;;19.20;38.10;;;;;;4988892;28;20450;-62
2022/12/09 08:16:07;;;;;;;1.80;1.70;;;19.10;38.00;;;;;;4979228;28;20492;-62
2022/12/09 08:18:34;;;;;;;1.90;1.80;;;19.10;38.10;;;;;;4980841;28;21073;-63
2022/12/09 08:21:05;;;;;;;1.73;1.63;;;19.20;38.10;;;;;;4977998;28;20995;-63
2022/12/09 08:23:31;;;;;;;2.10;2.00;;;19.20;38.10;;;;;;4977104;28;20461;-62
2022/12/09 08:25:58;;;;;;;1.80;1.70;;;19.10;38.00;;;;;;4975461;28;20773;-62
2022/12/09 08:28:23;;;;;;;1.80;1.70;;;19.10;38.00;;;;;;4984420;28;20480;-62
2022/12/09 08:30:49;;;;;;;2.07;1.93;;;19.10;38.00;;;;;;5007955;28;20420;-63
2022/12/09 08:33:15;;;;;;;2.00;1.90;;;19.10;38.00;;;;;;4999152;28;20220;-63
2022/12/09 08:35:42;;;;;;;2.20;2.00;;;19.10;38.00;;;;;;4974373;28;20557;-62
2022/12/09 08:38:08;;;;;;;2.03;1.70;;;19.20;38.00;;;;;;4984606;28;20485;-62
2022/12/09 08:40:33;;;;;;;1.77;1.67;;;19.10;38.00;;;;;;4973256;28;20445;-62
2022/12/09 08:42:59;;;;;;;1.90;1.80;;;19.20;38.10;;;;;;4979970;28;20231;-62
2022/12/09 08:45:25;;;;;;;3.00;1.80;;;19.10;38.00;;;;;;4977121;28;20220;-62
2022/12/09 08:47:50;;;;;;;3.50;2.03;;;19.10;38.00;;;;;;4981825;28;20307;-62
2022/12/09 08:50:16;;;;;;;2.20;2.10;;;19.10;37.90;;;;;;4982581;28;20560;-63
2022/12/09 08:52:42;;;;;;;2.33;2.00;;;19.10;37.90;;;;;;4988308;28;20256;-63
2022/12/09 08:55:08;;;;;;;2.00;1.90;;;19.10;37.90;;;;;;4980398;28;20220;-63
2022/12/09 08:57:34;;;;;;;1.90;1.80;;;19.10;37.80;;;;;;4983081;28;20235;-62
2022/12/09 09:00:00;;;;;;;2.53;2.30;;;19.10;37.80;;;;;;4997254;28;20519;-62
2022/12/09 09:02:26;;;;;;;2.23;2.03;;;19.10;37.80;;;;;;4995083;28;21047;-61
2022/12/09 09:04:51;;;;;;;1.90;1.80;;;19.10;37.80;;;;;;4995300;28;20219;-62
2022/12/09 09:07:17;;;;;;;2.40;2.10;;;19.10;37.90;;;;;;4993314;28;20234;-62
2022/12/09 09:09:42;;;;;;;2.37;2.27;;;19.10;37.80;;;;;;4999211;28;20389;-62
2022/12/09 09:12:08;;;;;;;1.90;1.80;;;19.10;37.90;;;;;;4998168;28;20231;-62
2022/12/09 09:14:33;;;;;;;2.27;2.10;;;19.10;37.80;;;;;;4993796;28;20262;-62
2022/12/09 09:16:59;;;;;;;2.10;1.90;;;19.10;37.80;;;;;;4989369;28;20226;-63
2022/12/09 09:19:25;;;;;;;1.90;1.80;;;19.10;37.80;;;;;;4996286;28;20218;-62
2022/12/09 09:21:51;;;;;;;1.90;1.73;;;19.10;37.80;;;;;;4986068;28;20223;-62
2022/12/09 09:24:19;;;;;;;1.97;1.87;;;19.10;37.80;;;;;;4991478;28;20301;-62
2022/12/09 09:26:46;;;;;;;2.17;2.07;;;19.10;37.80;;;;;;4986644;28;20495;-62
2022/12/09 09:29:13;;;;;;;1.70;1.60;;;19.10;37.80;;;;;;4991490;28;20452;-62
2022/12/09 09:31:39;;;;;;;2.23;2.13;;;19.10;37.80;;;;;;4978408;28;20509;-62
2022/12/09 09:34:05;;;;;;;2.50;2.30;;;19.10;37.70;;;;;;4978266;28;20595;-62
2022/12/09 09:36:31;;;;;;;2.30;2.20;;;19.10;37.70;;;;;;4980775;28;20451;-62
2022/12/09 09:38:57;;;;;;;1.80;1.70;;;19.10;37.70;;;;;;4979403;28;20441;-62
2022/12/09 09:41:31;;;;;;;2.43;2.33;;;19.10;37.70;;;;;;4971913;28;20354;-62
2022/12/09 09:43:57;;;;;;;1.60;1.50;;;19.10;37.70;;;;;;4974767;28;20455;-62
2022/12/09 09:46:44;;;;;;;1.90;1.80;;;19.10;37.70;;;;;;4981586;28;20788;-62
2022/12/09 09:49:17;;;;;;;2.13;1.93;;;19.10;37.70;;;;;;4998749;28;20228;-62
2022/12/09 09:51:42;;;;;;;1.90;1.80;;;19.10;37.70;;;;;;4976113;28;20469;-62
2022/12/09 09:54:11;;;;;;;1.80;1.70;;;19.10;37.70;;;;;;4972212;28;20645;-62
2022/12/09 09:56:53;;;;;;;1.83;1.73;;;19.10;37.70;;;;;;4970661;28;20239;-63
2022/12/09 09:59:35;;;;;;;1.93;1.83;;;19.10;37.70;;;;;;4985514;28;20507;-63
2022/12/09 10:02:17;;;;;;;1.90;1.80;;;19.10;37.70;;;;;;4981640;28;20500;-62
2022/12/09 10:05:01;;;;;;;1.97;1.87;;;19.00;37.60;;;;;;4987006;28;20445;-62
2022/12/09 10:07:51;;;;;;;1.70;1.60;;;19.10;37.70;;;;;;4985621;28;20439;-62
2022/12/09 10:10:22;;;;;;;1.83;1.73;;;19.10;37.70;;;;;;4982632;28;20440;-62
2022/12/09 10:13:00;;;;;;;1.80;1.70;;;19.10;37.70;;;;;;4980708;28;20496;-62
2022/12/09 10:15:29;;;;;;;1.83;1.73;;;19.00;37.60;;;;;;4979198;28;20949;-62
2022/12/09 10:18:07;;;;;;;2.20;1.80;;;19.10;37.70;;;;;;4982294;28;20445;-62
2022/12/09 10:20:33;;;;;;;2.80;1.60;;;19.10;37.70;;;;;;4971290;28;20445;-62
2022/12/09 10:23:00;;;;;;;1.90;1.80;;;19.10;37.70;;;;;;4979265;28;20446;-62
2022/12/09 10:25:32;;;;;;;1.80;1.70;;;19.10;37.70;;;;;;4993510;28;20660;-62
2022/12/09 10:28:25;;;;;;;1.73;1.63;;;19.10;37.70;;;;;;4992623;28;20502;-62
2022/12/09 10:30:53;;;;;;;1.67;1.57;;;19.10;37.70;;;;;;4995822;28;20465;-62
2022/12/09 10:33:25;;;;;;;3.53;1.90;;;19.10;37.80;;;;;;4994463;28;20579;-62
2022/12/09 10:35:51;;;;;;;2.13;2.03;;;19.10;37.80;;;;;;4995923;28;20453;-62
2022/12/09 10:38:18;;;;;;;2.00;1.67;;;19.10;37.80;;;;;;4990661;28;20453;-63
2022/12/09 10:40:57;;;;;;;1.73;1.63;;;19.10;37.80;;;;;;4972676;28;20264;-62
2022/12/09 10:43:37;;;;;;;1.70;1.60;;;19.10;38.60;;;;;;4968074;28;20450;-62
2022/12/09 10:46:23;;;;;;;2.10;1.73;;;19.20;38.00;;;;;;4988440;28;20468;-62
2022/12/09 10:48:48;;;;;;;1.93;1.83;;;19.10;37.90;;;;;;4989296;28;20478;-63
2022/12/09 10:51:29;;;;;;;2.17;1.80;;;19.10;38.00;;;;;;4979384;28;20448;-62
2022/12/09 10:54:10;;;;;;;1.80;1.70;;;19.10;38.00;;;;;;4977629;28;22446;-62
2022/12/09 10:56:38;;;;;;;1.80;1.70;;;19.20;38.00;;;;;;4976220;28;20493;-63
2022/12/09 10:59:40;;;;;;;1.87;1.77;;;19.10;38.10;;;;;;4975196;28;20523;-62
2022/12/09 11:02:09;;;;;;;2.30;2.10;;;19.20;38.10;;;;;;4969106;28;20862;-63
2022/12/09 11:04:40;;;;;;;1.93;1.83;;;19.20;38.30;;;;;;4980509;28;20439;-62
2022/12/09 11:07:11;;;;;;;1.70;1.60;;;19.10;38.20;;;;;;4968099;28;20458;-63
2022/12/09 11:09:46;;;;;;;1.70;1.60;;;19.20;38.30;;;;;;4984447;28;20535;-63
2022/12/09 11:12:37;;;;;;;1.57;1.47;;;19.20;38.30;;;;;;4971223;28;21024;-63
2022/12/09 11:15:25;;;;;;;1.90;1.70;;;19.20;38.30;;;;;;4989396;28;20587;-62
2022/12/09 11:18:14;;;;;;;2.30;1.67;;;19.20;38.50;;;;;;4977743;28;20462;-62
2022/12/09 11:20:40;;;;;;;2.90;1.60;;;19.20;38.40;;;;;;4970417;28;20433;-62
2022/12/09 11:23:11;;;;;;;1.83;1.73;;;19.20;39.20;;;;;;4964654;28;20455;-63
2022/12/09 11:25:37;;;;;;;1.50;1.40;;;19.10;38.40;;;;;;4955093;28;20315;-62
2022/12/09 11:28:14;;;;;;;2.20;2.00;;;19.20;38.50;;;;;;4959825;28;20551;-62
2022/12/09 11:31:00;;;;;;;1.70;1.60;;;19.20;38.50;;;;;;4979649;28;20451;-62
2022/12/09 11:33:33;;;;;;;1.60;1.50;;;19.20;38.50;;;;;;4973052;28;20470;-62
2022/12/09 11:35:58;;;;;;;2.00;1.90;;;19.10;38.40;;;;;;4975946;28;20460;-62
2022/12/09 11:38:30;;;;;;;1.77;1.67;;;19.10;38.40;;;;;;4983823;28;20464;-62
2022/12/09 11:41:02;;;;;;;1.53;1.43;;;19.20;38.70;;;;;;4966002;28;20593;-62
2022/12/09 11:43:39;;;;;;;1.90;1.80;;;19.20;38.50;;;;;;4968473;28;20919;-62
2022/12/09 11:46:26;;;;;;;1.53;1.43;;;19.20;38.90;;;;;;4975314;28;20473;-63
2022/12/09 11:48:56;;;;;;;1.97;1.87;;;19.20;38.50;;;;;;4968690;28;20431;-62
2022/12/09 11:51:38;;;;;;;1.70;1.60;;;19.20;38.50;;;;;;4975420;28;20444;-62
2022/12/09 11:54:14;;;;;;;1.90;1.80;;;19.20;38.50;;;;;;4963449;28;20470;-62
2022/12/09 11:56:49;;;;;;;2.00;1.90;;;19.20;38.50;;;;;;4967589;28;20532;-63
2022/12/09 11:59:20;;;;;;;2.10;2.00;;;19.20;38.50;;;;;;4983249;28;21252;-62
2022/12/09 12:01:57;;;;;;;1.90;1.80;;;19.20;38.50;;;;;;4981083;28;20494;-63
2022/12/09 12:04:40;;;;;;;2.10;2.00;;;19.20;38.50;;;;;;4981280;28;21032;-63
2022/12/09 12:07:12;;;;;;;1.80;1.70;;;19.20;38.50;;;;;;4970609;28;20532;-62
2022/12/09 12:09:49;;;;;;;1.93;1.67;;;19.20;38.50;;;;;;4958934;28;22093;-62
2022/12/09 12:12:35;;;;;;;1.80;1.70;;;19.20;38.50;;;;;;4965430;28;20532;-63
2022/12/09 12:15:12;;;;;;;2.00;1.90;;;19.20;38.50;;;;;;4961874;28;20461;-63
2022/12/09 12:17:47;;;;;;;1.80;1.70;;;19.20;38.50;;;;;;4966989;28;20492;-64
2022/12/09 12:20:13;;;;;;;1.70;1.60;;;19.20;38.50;;;;;;4964154;28;20455;-62
2022/12/09 12:22:53;;;;;;;1.70;1.60;;;19.20;38.50;;;;;;4967106;28;20964;-62
2022/12/09 12:25:51;;;;;;;2.10;2.00;;;19.20;38.50;;;;;;4968470;28;20583;-62
2022/12/09 12:28:43;;;;;;;1.90;1.80;;;19.20;38.50;;;;;;4968555;28;20440;-62
2022/12/09 12:31:39;;;;;;;1.73;1.63;;;19.20;38.50;;;;;;4971510;28;20961;-62
2022/12/09 12:34:13;;;;;;;2.10;2.00;;;19.20;38.50;;;;;;4960050;28;20452;-62
2022/12/09 12:36:57;;;;;;;2.07;1.97;;;19.20;38.50;;;;;;4962717;28;20436;-62
2022/12/09 12:39:36;;;;;;;2.03;1.93;;;19.20;38.50;;;;;;4963078;28;20474;-62
2022/12/09 12:42:24;;;;;;;1.80;1.70;;;19.20;38.50;;;;;;4963705;28;20477;-62
2022/12/09 12:48:13;;;;;;;2.00;1.90;;;19.20;38.50;;;;;;4963582;28;20472;-61
2022/12/09 12:51:13;;;;;;;1.77;1.67;;;19.20;38.50;;;;;;4965241;28;20456;-64
2022/12/09 12:53:45;;;;;;;2.10;2.00;;;19.20;38.60;;;;;;4980406;28;20569;-63
2022/12/09 12:56:15;;;;;;;2.27;1.93;;;19.20;38.50;;;;;;4991262;28;21313;-63
2022/12/09 12:59:03;;;;;;;2.73;1.77;;;19.20;38.50;;;;;;4963359;28;20447;-63
2022/12/09 13:01:33;;;;;;;1.70;1.60;;;19.20;38.60;;;;;;4976020;28;20476;-63
2022/12/09 13:04:24;;;;;;;2.13;2.03;;;19.20;38.50;;;;;;4977785;28;20468;-63
2022/12/09 13:07:15;;;;;;;1.97;1.87;;;19.20;38.50;;;;;;4972175;28;21107;-62